sensor_id;sensor_type;location;lat;lon;timestamp;P1;durP1;ratioP1;P2;durP2;ratioP2
21424;SDS011;10873;51.132;16.848;2024-03-29T00:02:06;5.38;;;2.70;;
21424;SDS011;10873;51.132;16.848;2024-03-29T00:04:32;3.58;;;2.13;;
21424;SDS011;10873;51.132;16.848;2024-03-29T00:06:59;4.28;;;2.50;;
21424;SDS011;10873;51.132;16.848;2024-03-29T00:09:25;4.32;;;2.67;;
21424;SDS011;10873;51.132;16.848;2024-03-29T00:11:51;4.13;;;2.60;;
21424;SDS011;10873;51.132;16.848;2024-03-29T00:14:17;3.67;;;2.70;;
21424;SDS011;10873;51.132;16.848;2024-03-29T00:16:43;4.25;;;2.70;;
21424;SDS011;10873;51.132;16.848;2024-03-29T00:19:09;3.40;;;2.30;;
21424;SDS011;10873;51.132;16.848;2024-03-29T00:21:35;4.55;;;2.55;;
21424;SDS011;10873;51.132;16.848;2024-03-29T00:24:02;3.88;;;2.40;;
21424;SDS011;10873;51.132;16.848;2024-03-29T00:26:28;4.20;;;2.40;;
21424;SDS011;10873;51.132;16.848;2024-03-29T00:28:54;4.10;;;2.38;;
21424;SDS011;10873;51.132;16.848;2024-03-29T00:31:21;3.97;;;2.60;;
21424;SDS011;10873;51.132;16.848;2024-03-29T00:33:47;4.05;;;2.25;;
21424;SDS011;10873;51.132;16.848;2024-03-29T00:36:13;3.72;;;2.53;;
21424;SDS011;10873;51.132;16.848;2024-03-29T00:38:39;3.33;;;2.50;;
21424;SDS011;10873;51.132;16.848;2024-03-29T00:41:05;3.25;;;2.42;;
21424;SDS011;10873;51.132;16.848;2024-03-29T00:43:32;4.78;;;2.45;;
21424;SDS011;10873;51.132;16.848;2024-03-29T00:45:58;5.93;;;2.42;;
21424;SDS011;10873;51.132;16.848;2024-03-29T00:48:24;4.15;;;2.40;;
21424;SDS011;10873;51.132;16.848;2024-03-29T00:50:50;4.05;;;2.55;;
21424;SDS011;10873;51.132;16.848;2024-03-29T00:53:16;4.30;;;2.58;;
21424;SDS011;10873;51.132;16.848;2024-03-29T00:55:42;4.13;;;2.30;;
21424;SDS011;10873;51.132;16.848;2024-03-29T00:58:09;4.25;;;2.30;;
21424;SDS011;10873;51.132;16.848;2024-03-29T01:00:36;3.55;;;2.20;;
21424;SDS011;10873;51.132;16.848;2024-03-29T01:03:02;4.47;;;2.10;;
21424;SDS011;10873;51.132;16.848;2024-03-29T01:05:28;5.13;;;2.17;;
21424;SDS011;10873;51.132;16.848;2024-03-29T01:07:54;3.80;;;1.90;;
21424;SDS011;10873;51.132;16.848;2024-03-29T01:10:20;3.42;;;2.15;;
21424;SDS011;10873;51.132;16.848;2024-03-29T01:12:47;3.90;;;1.90;;
21424;SDS011;10873;51.132;16.848;2024-03-29T01:15:14;3.50;;;2.25;;
21424;SDS011;10873;51.132;16.848;2024-03-29T01:17:40;2.20;;;1.85;;
21424;SDS011;10873;51.132;16.848;2024-03-29T01:20:07;2.50;;;2.00;;
21424;SDS011;10873;51.132;16.848;2024-03-29T01:22:34;2.95;;;1.90;;
21424;SDS011;10873;51.132;16.848;2024-03-29T01:25:00;4.10;;;2.00;;
21424;SDS011;10873;51.132;16.848;2024-03-29T01:27:28;4.38;;;1.90;;
21424;SDS011;10873;51.132;16.848;2024-03-29T01:29:54;2.55;;;1.70;;
21424;SDS011;10873;51.132;16.848;2024-03-29T01:32:21;1.83;;;1.50;;
21424;SDS011;10873;51.132;16.848;2024-03-29T01:34:47;2.95;;;1.90;;
21424;SDS011;10873;51.132;16.848;2024-03-29T01:37:13;2.22;;;1.70;;
21424;SDS011;10873;51.132;16.848;2024-03-29T01:39:39;2.15;;;1.63;;
21424;SDS011;10873;51.132;16.848;2024-03-29T01:42:05;2.28;;;1.63;;
21424;SDS011;10873;51.132;16.848;2024-03-29T01:44:31;3.20;;;2.17;;
21424;SDS011;10873;51.132;16.848;2024-03-29T01:46:57;2.30;;;1.90;;
21424;SDS011;10873;51.132;16.848;2024-03-29T01:49:24;3.08;;;1.88;;
21424;SDS011;10873;51.132;16.848;2024-03-29T01:51:51;2.83;;;1.70;;
21424;SDS011;10873;51.132;16.848;2024-03-29T01:54:17;2.53;;;1.75;;
21424;SDS011;10873;51.132;16.848;2024-03-29T01:56:43;2.70;;;1.75;;
21424;SDS011;10873;51.132;16.848;2024-03-29T01:59:11;1.92;;;1.38;;
21424;SDS011;10873;51.132;16.848;2024-03-29T02:01:40;2.00;;;1.80;;
21424;SDS011;10873;51.132;16.848;2024-03-29T02:04:07;2.17;;;1.55;;
21424;SDS011;10873;51.132;16.848;2024-03-29T02:06:34;2.20;;;1.48;;
21424;SDS011;10873;51.132;16.848;2024-03-29T02:09:00;2.80;;;1.90;;
21424;SDS011;10873;51.132;16.848;2024-03-29T02:11:26;2.35;;;1.85;;
21424;SDS011;10873;51.132;16.848;2024-03-29T02:13:52;2.17;;;1.67;;
21424;SDS011;10873;51.132;16.848;2024-03-29T02:16:19;2.05;;;1.67;;
21424;SDS011;10873;51.132;16.848;2024-03-29T02:18:45;5.03;;;1.77;;
21424;SDS011;10873;51.132;16.848;2024-03-29T02:21:11;2.53;;;1.80;;
21424;SDS011;10873;51.132;16.848;2024-03-29T02:23:40;4.40;;;1.80;;
21424;SDS011;10873;51.132;16.848;2024-03-29T02:26:09;2.05;;;1.85;;
21424;SDS011;10873;51.132;16.848;2024-03-29T02:28:36;2.22;;;1.60;;
21424;SDS011;10873;51.132;16.848;2024-03-29T02:31:02;2.03;;;1.77;;
21424;SDS011;10873;51.132;16.848;2024-03-29T02:33:29;2.05;;;1.70;;
21424;SDS011;10873;51.132;16.848;2024-03-29T02:35:55;2.15;;;1.45;;
21424;SDS011;10873;51.132;16.848;2024-03-29T02:38:22;2.25;;;1.63;;
21424;SDS011;10873;51.132;16.848;2024-03-29T02:40:48;2.17;;;1.70;;
21424;SDS011;10873;51.132;16.848;2024-03-29T02:43:15;2.38;;;1.65;;
21424;SDS011;10873;51.132;16.848;2024-03-29T02:45:41;2.05;;;1.58;;
21424;SDS011;10873;51.132;16.848;2024-03-29T02:48:08;1.92;;;1.48;;
21424;SDS011;10873;51.132;16.848;2024-03-29T02:50:34;2.38;;;1.50;;
21424;SDS011;10873;51.132;16.848;2024-03-29T02:53:00;2.53;;;1.70;;
21424;SDS011;10873;51.132;16.848;2024-03-29T02:55:26;2.13;;;1.60;;
21424;SDS011;10873;51.132;16.848;2024-03-29T02:57:52;3.33;;;1.40;;
21424;SDS011;10873;51.132;16.848;2024-03-29T03:00:19;2.20;;;1.45;;
21424;SDS011;10873;51.132;16.848;2024-03-29T03:02:45;1.50;;;1.40;;
21424;SDS011;10873;51.132;16.848;2024-03-29T03:05:11;2.30;;;1.45;;
21424;SDS011;10873;51.132;16.848;2024-03-29T03:07:37;2.03;;;1.40;;
21424;SDS011;10873;51.132;16.848;2024-03-29T03:10:22;3.60;;;1.65;;
21424;SDS011;10873;51.132;16.848;2024-03-29T03:13:07;2.53;;;1.40;;
21424;SDS011;10873;51.132;16.848;2024-03-29T03:15:33;3.55;;;1.60;;
21424;SDS011;10873;51.132;16.848;2024-03-29T03:17:59;2.03;;;1.50;;
21424;SDS011;10873;51.132;16.848;2024-03-29T03:20:25;2.22;;;1.50;;
21424;SDS011;10873;51.132;16.848;2024-03-29T03:22:57;2.15;;;1.55;;
21424;SDS011;10873;51.132;16.848;2024-03-29T03:25:24;3.50;;;1.60;;
21424;SDS011;10873;51.132;16.848;2024-03-29T03:27:50;1.88;;;1.63;;
21424;SDS011;10873;51.132;16.848;2024-03-29T03:30:16;2.08;;;1.60;;
21424;SDS011;10873;51.132;16.848;2024-03-29T03:32:43;2.20;;;1.65;;
21424;SDS011;10873;51.132;16.848;2024-03-29T03:35:09;1.98;;;1.50;;
21424;SDS011;10873;51.132;16.848;2024-03-29T03:37:35;1.40;;;1.30;;
21424;SDS011;10873;51.132;16.848;2024-03-29T03:40:01;1.77;;;1.52;;
21424;SDS011;10873;51.132;16.848;2024-03-29T03:42:29;1.42;;;1.33;;
21424;SDS011;10873;51.132;16.848;2024-03-29T03:44:55;1.67;;;1.25;;
21424;SDS011;10873;51.132;16.848;2024-03-29T03:47:21;2.08;;;1.50;;
21424;SDS011;10873;51.132;16.848;2024-03-29T03:49:48;2.63;;;1.60;;
21424;SDS011;10873;51.132;16.848;2024-03-29T03:52:14;2.30;;;1.70;;
21424;SDS011;10873;51.132;16.848;2024-03-29T03:54:40;1.85;;;1.60;;
21424;SDS011;10873;51.132;16.848;2024-03-29T03:57:06;1.77;;;1.67;;
21424;SDS011;10873;51.132;16.848;2024-03-29T03:59:32;2.45;;;1.70;;
21424;SDS011;10873;51.132;16.848;2024-03-29T04:01:59;1.63;;;1.40;;
21424;SDS011;10873;51.132;16.848;2024-03-29T04:04:25;1.40;;;1.30;;
21424;SDS011;10873;51.132;16.848;2024-03-29T04:06:52;2.05;;;1.63;;
21424;SDS011;10873;51.132;16.848;2024-03-29T04:09:17;1.73;;;1.58;;
21424;SDS011;10873;51.132;16.848;2024-03-29T04:11:44;2.15;;;1.60;;
21424;SDS011;10873;51.132;16.848;2024-03-29T04:14:09;2.35;;;1.50;;
21424;SDS011;10873;51.132;16.848;2024-03-29T04:16:36;2.28;;;1.60;;
21424;SDS011;10873;51.132;16.848;2024-03-29T04:19:02;1.85;;;1.40;;
21424;SDS011;10873;51.132;16.848;2024-03-29T04:21:28;1.88;;;1.40;;
21424;SDS011;10873;51.132;16.848;2024-03-29T04:23:54;1.60;;;1.23;;
21424;SDS011;10873;51.132;16.848;2024-03-29T04:26:21;2.13;;;1.45;;
21424;SDS011;10873;51.132;16.848;2024-03-29T04:28:47;1.58;;;1.30;;
21424;SDS011;10873;51.132;16.848;2024-03-29T04:31:13;1.85;;;1.42;;
21424;SDS011;10873;51.132;16.848;2024-03-29T04:33:39;2.60;;;1.77;;
21424;SDS011;10873;51.132;16.848;2024-03-29T04:36:06;1.50;;;1.23;;
21424;SDS011;10873;51.132;16.848;2024-03-29T04:38:32;2.17;;;1.48;;
21424;SDS011;10873;51.132;16.848;2024-03-29T04:40:59;2.50;;;1.48;;
21424;SDS011;10873;51.132;16.848;2024-03-29T04:43:25;2.03;;;1.63;;
21424;SDS011;10873;51.132;16.848;2024-03-29T04:46:01;3.17;;;1.50;;
21424;SDS011;10873;51.132;16.848;2024-03-29T04:48:29;2.47;;;1.73;;
21424;SDS011;10873;51.132;16.848;2024-03-29T04:50:56;1.75;;;1.50;;
21424;SDS011;10873;51.132;16.848;2024-03-29T04:53:22;2.38;;;1.70;;
21424;SDS011;10873;51.132;16.848;2024-03-29T04:55:52;1.80;;;1.45;;
21424;SDS011;10873;51.132;16.848;2024-03-29T04:58:19;3.90;;;1.77;;
21424;SDS011;10873;51.132;16.848;2024-03-29T05:00:46;3.15;;;1.90;;
21424;SDS011;10873;51.132;16.848;2024-03-29T05:03:11;2.22;;;1.52;;
21424;SDS011;10873;51.132;16.848;2024-03-29T05:05:38;4.70;;;1.60;;
21424;SDS011;10873;51.132;16.848;2024-03-29T05:08:04;2.35;;;1.50;;
21424;SDS011;10873;51.132;16.848;2024-03-29T05:10:31;2.65;;;1.77;;
21424;SDS011;10873;51.132;16.848;2024-03-29T05:12:56;4.80;;;1.63;;
21424;SDS011;10873;51.132;16.848;2024-03-29T05:15:24;1.75;;;1.40;;
21424;SDS011;10873;51.132;16.848;2024-03-29T05:17:50;1.95;;;1.60;;
21424;SDS011;10873;51.132;16.848;2024-03-29T05:20:16;2.30;;;1.67;;
21424;SDS011;10873;51.132;16.848;2024-03-29T05:22:42;1.73;;;1.50;;
21424;SDS011;10873;51.132;16.848;2024-03-29T05:25:08;2.10;;;1.33;;
21424;SDS011;10873;51.132;16.848;2024-03-29T05:27:34;2.05;;;1.70;;
21424;SDS011;10873;51.132;16.848;2024-03-29T05:30:00;1.88;;;1.50;;
21424;SDS011;10873;51.132;16.848;2024-03-29T05:32:29;1.40;;;1.20;;
21424;SDS011;10873;51.132;16.848;2024-03-29T05:34:55;1.48;;;1.30;;
21424;SDS011;10873;51.132;16.848;2024-03-29T05:37:21;2.22;;;1.42;;
21424;SDS011;10873;51.132;16.848;2024-03-29T05:39:50;1.30;;;1.20;;
21424;SDS011;10873;51.132;16.848;2024-03-29T05:42:24;1.80;;;1.27;;
21424;SDS011;10873;51.132;16.848;2024-03-29T05:44:50;1.42;;;1.20;;
21424;SDS011;10873;51.132;16.848;2024-03-29T05:47:21;1.83;;;1.20;;
21424;SDS011;10873;51.132;16.848;2024-03-29T05:49:50;1.60;;;1.30;;
21424;SDS011;10873;51.132;16.848;2024-03-29T05:52:16;1.63;;;1.30;;
21424;SDS011;10873;51.132;16.848;2024-03-29T05:54:46;1.90;;;1.33;;
21424;SDS011;10873;51.132;16.848;2024-03-29T05:57:12;1.75;;;1.30;;
21424;SDS011;10873;51.132;16.848;2024-03-29T05:59:39;2.20;;;1.40;;
21424;SDS011;10873;51.132;16.848;2024-03-29T06:02:05;2.40;;;1.48;;
21424;SDS011;10873;51.132;16.848;2024-03-29T06:04:32;1.95;;;1.30;;
21424;SDS011;10873;51.132;16.848;2024-03-29T06:07:05;2.22;;;1.10;;
21424;SDS011;10873;51.132;16.848;2024-03-29T06:09:36;1.63;;;1.30;;
21424;SDS011;10873;51.132;16.848;2024-03-29T06:12:07;2.13;;;1.25;;
21424;SDS011;10873;51.132;16.848;2024-03-29T06:14:39;2.38;;;1.33;;
21424;SDS011;10873;51.132;16.848;2024-03-29T06:17:24;2.30;;;1.38;;
21424;SDS011;10873;51.132;16.848;2024-03-29T06:19:50;2.05;;;1.13;;
21424;SDS011;10873;51.132;16.848;2024-03-29T06:22:21;2.08;;;1.42;;
21424;SDS011;10873;51.132;16.848;2024-03-29T06:24:49;1.98;;;1.38;;
21424;SDS011;10873;51.132;16.848;2024-03-29T06:27:16;2.53;;;1.10;;
21424;SDS011;10873;51.132;16.848;2024-03-29T06:29:43;1.33;;;1.10;;
21424;SDS011;10873;51.132;16.848;2024-03-29T06:32:10;1.63;;;1.20;;
21424;SDS011;10873;51.132;16.848;2024-03-29T06:34:36;2.38;;;1.27;;
21424;SDS011;10873;51.132;16.848;2024-03-29T06:37:03;2.28;;;1.10;;
21424;SDS011;10873;51.132;16.848;2024-03-29T06:39:33;2.30;;;1.30;;
21424;SDS011;10873;51.132;16.848;2024-03-29T06:41:59;0.95;;;0.88;;
21424;SDS011;10873;51.132;16.848;2024-03-29T06:44:25;1.65;;;0.98;;
21424;SDS011;10873;51.132;16.848;2024-03-29T06:46:52;3.17;;;1.20;;
21424;SDS011;10873;51.132;16.848;2024-03-29T06:49:19;2.40;;;1.33;;
21424;SDS011;10873;51.132;16.848;2024-03-29T06:51:45;2.17;;;1.13;;
21424;SDS011;10873;51.132;16.848;2024-03-29T06:54:11;1.65;;;0.98;;
21424;SDS011;10873;51.132;16.848;2024-03-29T06:56:38;2.28;;;1.20;;
21424;SDS011;10873;51.132;16.848;2024-03-29T06:59:05;3.17;;;1.50;;
21424;SDS011;10873;51.132;16.848;2024-03-29T07:01:31;3.40;;;1.42;;
21424;SDS011;10873;51.132;16.848;2024-03-29T07:03:57;2.13;;;1.27;;
21424;SDS011;10873;51.132;16.848;2024-03-29T07:06:23;1.30;;;1.10;;
21424;SDS011;10873;51.132;16.848;2024-03-29T07:08:49;1.73;;;1.30;;
21424;SDS011;10873;51.132;16.848;2024-03-29T07:11:15;1.85;;;1.30;;
21424;SDS011;10873;51.132;16.848;2024-03-29T07:13:42;2.92;;;1.10;;
21424;SDS011;10873;51.132;16.848;2024-03-29T07:16:08;3.85;;;1.20;;
21424;SDS011;10873;51.132;16.848;2024-03-29T07:18:34;3.05;;;1.23;;
21424;SDS011;10873;51.132;16.848;2024-03-29T07:21:00;2.28;;;1.52;;
21424;SDS011;10873;51.132;16.848;2024-03-29T07:23:26;2.15;;;1.42;;
21424;SDS011;10873;51.132;16.848;2024-03-29T07:25:58;5.30;;;1.48;;
21424;SDS011;10873;51.132;16.848;2024-03-29T07:28:26;2.97;;;1.13;;
21424;SDS011;10873;51.132;16.848;2024-03-29T07:30:53;3.10;;;1.40;;
21424;SDS011;10873;51.132;16.848;2024-03-29T07:33:19;4.53;;;1.50;;
21424;SDS011;10873;51.132;16.848;2024-03-29T07:35:46;3.00;;;1.33;;
21424;SDS011;10873;51.132;16.848;2024-03-29T07:38:13;3.70;;;1.27;;
21424;SDS011;10873;51.132;16.848;2024-03-29T07:40:42;1.90;;;1.50;;
21424;SDS011;10873;51.132;16.848;2024-03-29T07:43:08;6.15;;;1.58;;
21424;SDS011;10873;51.132;16.848;2024-03-29T07:45:34;4.03;;;1.70;;
21424;SDS011;10873;51.132;16.848;2024-03-29T07:48:01;2.75;;;1.60;;
21424;SDS011;10873;51.132;16.848;2024-03-29T07:50:27;5.05;;;1.40;;
21424;SDS011;10873;51.132;16.848;2024-03-29T07:52:54;3.58;;;1.58;;
21424;SDS011;10873;51.132;16.848;2024-03-29T07:55:19;3.03;;;1.60;;
21424;SDS011;10873;51.132;16.848;2024-03-29T07:57:46;3.17;;;1.20;;
21424;SDS011;10873;51.132;16.848;2024-03-29T08:00:13;5.50;;;1.35;;
21424;SDS011;10873;51.132;16.848;2024-03-29T08:02:39;4.32;;;1.20;;
21424;SDS011;10873;51.132;16.848;2024-03-29T08:05:07;3.63;;;1.10;;
21424;SDS011;10873;51.132;16.848;2024-03-29T08:07:33;6.03;;;1.38;;
21424;SDS011;10873;51.132;16.848;2024-03-29T08:09:59;3.75;;;1.33;;
21424;SDS011;10873;51.132;16.848;2024-03-29T08:12:25;3.25;;;1.20;;
21424;SDS011;10873;51.132;16.848;2024-03-29T08:14:51;8.77;;;1.50;;
21424;SDS011;10873;51.132;16.848;2024-03-29T08:17:17;4.45;;;1.10;;
21424;SDS011;10873;51.132;16.848;2024-03-29T08:19:43;4.15;;;1.23;;
21424;SDS011;10873;51.132;16.848;2024-03-29T08:22:10;3.60;;;1.40;;
21424;SDS011;10873;51.132;16.848;2024-03-29T08:24:36;2.85;;;1.35;;
21424;SDS011;10873;51.132;16.848;2024-03-29T08:27:02;2.20;;;1.15;;
21424;SDS011;10873;51.132;16.848;2024-03-29T08:29:28;8.40;;;1.52;;
21424;SDS011;10873;51.132;16.848;2024-03-29T08:31:55;2.78;;;1.30;;
21424;SDS011;10873;51.132;16.848;2024-03-29T08:34:20;4.25;;;1.35;;
21424;SDS011;10873;51.132;16.848;2024-03-29T08:36:47;4.85;;;1.17;;
21424;SDS011;10873;51.132;16.848;2024-03-29T08:39:13;4.88;;;1.17;;
21424;SDS011;10873;51.132;16.848;2024-03-29T08:41:40;3.67;;;1.30;;
21424;SDS011;10873;51.132;16.848;2024-03-29T08:44:06;3.75;;;1.38;;
21424;SDS011;10873;51.132;16.848;2024-03-29T08:46:33;5.07;;;1.70;;
21424;SDS011;10873;51.132;16.848;2024-03-29T08:48:59;2.25;;;1.20;;
21424;SDS011;10873;51.132;16.848;2024-03-29T08:51:25;2.60;;;1.63;;
21424;SDS011;10873;51.132;16.848;2024-03-29T08:56:33;2.80;;;1.45;;
21424;SDS011;10873;51.132;16.848;2024-03-29T08:59:02;5.03;;;1.13;;
21424;SDS011;10873;51.132;16.848;2024-03-29T09:01:33;3.03;;;1.02;;
21424;SDS011;10873;51.132;16.848;2024-03-29T09:03:59;3.20;;;1.20;;
21424;SDS011;10873;51.132;16.848;2024-03-29T09:06:25;3.92;;;1.30;;
21424;SDS011;10873;51.132;16.848;2024-03-29T09:08:51;3.80;;;1.38;;
21424;SDS011;10873;51.132;16.848;2024-03-29T09:11:18;3.92;;;1.27;;
21424;SDS011;10873;51.132;16.848;2024-03-29T09:13:44;7.70;;;1.50;;
21424;SDS011;10873;51.132;16.848;2024-03-29T09:16:11;3.50;;;1.50;;
21424;SDS011;10873;51.132;16.848;2024-03-29T09:18:37;5.10;;;1.20;;
21424;SDS011;10873;51.132;16.848;2024-03-29T09:21:05;3.78;;;1.13;;
21424;SDS011;10873;51.132;16.848;2024-03-29T09:23:33;9.90;;;1.30;;
21424;SDS011;10873;51.132;16.848;2024-03-29T09:25:59;1.98;;;0.98;;
21424;SDS011;10873;51.132;16.848;2024-03-29T09:28:29;3.53;;;1.00;;
21424;SDS011;10873;51.132;16.848;2024-03-29T09:30:58;3.65;;;1.17;;
21424;SDS011;10873;51.132;16.848;2024-03-29T09:33:26;3.03;;;1.00;;
21424;SDS011;10873;51.132;16.848;2024-03-29T09:35:53;2.35;;;1.15;;
21424;SDS011;10873;51.132;16.848;2024-03-29T09:38:20;2.83;;;0.80;;
21424;SDS011;10873;51.132;16.848;2024-03-29T09:40:46;1.83;;;1.33;;
21424;SDS011;10873;51.132;16.848;2024-03-29T09:43:15;3.08;;;1.30;;
21424;SDS011;10873;51.132;16.848;2024-03-29T09:45:43;2.90;;;1.08;;
21424;SDS011;10873;51.132;16.848;2024-03-29T09:48:10;1.98;;;1.10;;
21424;SDS011;10873;51.132;16.848;2024-03-29T09:50:39;3.28;;;1.02;;
21424;SDS011;10873;51.132;16.848;2024-03-29T09:53:05;1.83;;;1.00;;
21424;SDS011;10873;51.132;16.848;2024-03-29T09:55:31;2.28;;;0.80;;
21424;SDS011;10873;51.132;16.848;2024-03-29T09:57:57;4.97;;;0.93;;
21424;SDS011;10873;51.132;16.848;2024-03-29T10:00:25;2.10;;;1.00;;
21424;SDS011;10873;51.132;16.848;2024-03-29T10:02:53;4.97;;;1.20;;
21424;SDS011;10873;51.132;16.848;2024-03-29T10:05:22;2.05;;;1.10;;
21424;SDS011;10873;51.132;16.848;2024-03-29T10:07:48;2.72;;;1.20;;
21424;SDS011;10873;51.132;16.848;2024-03-29T10:10:15;2.95;;;1.00;;
21424;SDS011;10873;51.132;16.848;2024-03-29T10:12:41;3.90;;;1.20;;
21424;SDS011;10873;51.132;16.848;2024-03-29T10:15:08;2.72;;;0.80;;
21424;SDS011;10873;51.132;16.848;2024-03-29T10:17:37;1.73;;;1.02;;
21424;SDS011;10873;51.132;16.848;2024-03-29T10:20:04;3.47;;;0.95;;
21424;SDS011;10873;51.132;16.848;2024-03-29T10:22:36;1.77;;;1.00;;
21424;SDS011;10873;51.132;16.848;2024-03-29T10:25:06;1.40;;;1.10;;
21424;SDS011;10873;51.132;16.848;2024-03-29T10:27:32;1.55;;;1.00;;
21424;SDS011;10873;51.132;16.848;2024-03-29T10:29:59;2.03;;;0.90;;
21424;SDS011;10873;51.132;16.848;2024-03-29T10:32:25;2.30;;;1.10;;
21424;SDS011;10873;51.132;16.848;2024-03-29T10:34:51;3.08;;;1.33;;
21424;SDS011;10873;51.132;16.848;2024-03-29T10:37:17;2.38;;;0.90;;
21424;SDS011;10873;51.132;16.848;2024-03-29T10:39:52;4.10;;;0.88;;
21424;SDS011;10873;51.132;16.848;2024-03-29T10:42:18;1.88;;;0.90;;
21424;SDS011;10873;51.132;16.848;2024-03-29T10:44:46;2.20;;;0.98;;
21424;SDS011;10873;51.132;16.848;2024-03-29T10:47:15;2.75;;;0.93;;
21424;SDS011;10873;51.132;16.848;2024-03-29T10:49:46;1.35;;;0.80;;
21424;SDS011;10873;51.132;16.848;2024-03-29T10:52:16;1.70;;;0.93;;
21424;SDS011;10873;51.132;16.848;2024-03-29T10:54:43;2.20;;;0.90;;
21424;SDS011;10873;51.132;16.848;2024-03-29T10:57:12;2.20;;;1.08;;
21424;SDS011;10873;51.132;16.848;2024-03-29T10:59:49;2.20;;;1.13;;
21424;SDS011;10873;51.132;16.848;2024-03-29T11:02:22;1.95;;;0.75;;
21424;SDS011;10873;51.132;16.848;2024-03-29T11:04:56;0.88;;;0.70;;
21424;SDS011;10873;51.132;16.848;2024-03-29T11:07:26;1.17;;;0.82;;
21424;SDS011;10873;51.132;16.848;2024-03-29T11:09:58;1.17;;;0.90;;
21424;SDS011;10873;51.132;16.848;2024-03-29T11:12:28;2.30;;;1.00;;
21424;SDS011;10873;51.132;16.848;2024-03-29T11:15:02;1.20;;;0.60;;
21424;SDS011;10873;51.132;16.848;2024-03-29T11:17:31;1.00;;;0.90;;
21424;SDS011;10873;51.132;16.848;2024-03-29T11:19:57;1.35;;;0.70;;
21424;SDS011;10873;51.132;16.848;2024-03-29T11:22:24;1.38;;;0.80;;
21424;SDS011;10873;51.132;16.848;2024-03-29T11:24:51;1.10;;;0.75;;
21424;SDS011;10873;51.132;16.848;2024-03-29T11:27:17;2.80;;;1.20;;
21424;SDS011;10873;51.132;16.848;2024-03-29T11:29:49;3.10;;;0.80;;
21424;SDS011;10873;51.132;16.848;2024-03-29T11:32:16;2.30;;;0.98;;
21424;SDS011;10873;51.132;16.848;2024-03-29T11:34:59;2.15;;;0.98;;
21424;SDS011;10873;51.132;16.848;2024-03-29T11:37:29;1.95;;;0.75;;
21424;SDS011;10873;51.132;16.848;2024-03-29T11:39:55;3.45;;;0.90;;
21424;SDS011;10873;51.132;16.848;2024-03-29T11:42:35;1.60;;;0.77;;
21424;SDS011;10873;51.132;16.848;2024-03-29T11:45:03;1.63;;;0.93;;
21424;SDS011;10873;51.132;16.848;2024-03-29T11:47:30;1.48;;;1.00;;
21424;SDS011;10873;51.132;16.848;2024-03-29T11:49:59;1.73;;;0.80;;
21424;SDS011;10873;51.132;16.848;2024-03-29T11:52:26;4.53;;;1.00;;
21424;SDS011;10873;51.132;16.848;2024-03-29T11:54:53;3.60;;;0.98;;
21424;SDS011;10873;51.132;16.848;2024-03-29T11:57:19;3.05;;;0.90;;
21424;SDS011;10873;51.132;16.848;2024-03-29T11:59:45;3.13;;;0.93;;
21424;SDS011;10873;51.132;16.848;2024-03-29T12:02:12;1.00;;;0.80;;
21424;SDS011;10873;51.132;16.848;2024-03-29T12:04:40;1.75;;;0.80;;
21424;SDS011;10873;51.132;16.848;2024-03-29T12:07:06;2.10;;;0.80;;
21424;SDS011;10873;51.132;16.848;2024-03-29T12:09:33;1.55;;;0.70;;
21424;SDS011;10873;51.132;16.848;2024-03-29T12:11:59;1.38;;;0.77;;
21424;SDS011;10873;51.132;16.848;2024-03-29T12:14:31;1.25;;;0.90;;
21424;SDS011;10873;51.132;16.848;2024-03-29T12:17:00;3.60;;;0.90;;
21424;SDS011;10873;51.132;16.848;2024-03-29T12:19:30;2.55;;;0.95;;
21424;SDS011;10873;51.132;16.848;2024-03-29T12:21:58;1.38;;;0.80;;
21424;SDS011;10873;51.132;16.848;2024-03-29T12:24:24;1.33;;;0.70;;
21424;SDS011;10873;51.132;16.848;2024-03-29T12:26:51;3.25;;;0.80;;
21424;SDS011;10873;51.132;16.848;2024-03-29T12:29:18;1.75;;;0.70;;
21424;SDS011;10873;51.132;16.848;2024-03-29T12:31:44;1.27;;;0.70;;
21424;SDS011;10873;51.132;16.848;2024-03-29T12:34:21;1.08;;;0.80;;
21424;SDS011;10873;51.132;16.848;2024-03-29T12:36:48;1.40;;;0.70;;
21424;SDS011;10873;51.132;16.848;2024-03-29T12:39:15;1.95;;;1.00;;
21424;SDS011;10873;51.132;16.848;2024-03-29T12:41:42;0.82;;;0.73;;
21424;SDS011;10873;51.132;16.848;2024-03-29T12:44:09;1.35;;;0.80;;
21424;SDS011;10873;51.132;16.848;2024-03-29T12:46:36;2.85;;;0.60;;
21424;SDS011;10873;51.132;16.848;2024-03-29T12:49:02;2.53;;;0.93;;
21424;SDS011;10873;51.132;16.848;2024-03-29T12:51:28;2.10;;;0.80;;
21424;SDS011;10873;51.132;16.848;2024-03-29T12:54:00;3.28;;;0.90;;
21424;SDS011;10873;51.132;16.848;2024-03-29T12:56:28;2.38;;;0.75;;
21424;SDS011;10873;51.132;16.848;2024-03-29T12:58:55;2.40;;;0.60;;
21424;SDS011;10873;51.132;16.848;2024-03-29T13:01:22;1.05;;;0.80;;
21424;SDS011;10873;51.132;16.848;2024-03-29T13:03:48;1.52;;;0.70;;
21424;SDS011;10873;51.132;16.848;2024-03-29T13:06:15;2.08;;;0.70;;
21424;SDS011;10873;51.132;16.848;2024-03-29T13:08:41;1.15;;;0.70;;
21424;SDS011;10873;51.132;16.848;2024-03-29T13:11:09;3.42;;;0.80;;
21424;SDS011;10873;51.132;16.848;2024-03-29T13:13:36;3.50;;;0.60;;
21424;SDS011;10873;51.132;16.848;2024-03-29T13:16:02;1.35;;;0.60;;
21424;SDS011;10873;51.132;16.848;2024-03-29T13:18:30;0.60;;;0.60;;
21424;SDS011;10873;51.132;16.848;2024-03-29T13:20:55;1.08;;;0.73;;
21424;SDS011;10873;51.132;16.848;2024-03-29T13:23:25;0.60;;;0.60;;
21424;SDS011;10873;51.132;16.848;2024-03-29T13:25:51;1.83;;;0.60;;
21424;SDS011;10873;51.132;16.848;2024-03-29T13:28:19;1.35;;;0.70;;
21424;SDS011;10873;51.132;16.848;2024-03-29T13:30:47;1.30;;;0.80;;
21424;SDS011;10873;51.132;16.848;2024-03-29T13:33:15;1.15;;;0.75;;
21424;SDS011;10873;51.132;16.848;2024-03-29T13:35:42;1.35;;;0.73;;
21424;SDS011;10873;51.132;16.848;2024-03-29T13:38:10;1.23;;;0.60;;
21424;SDS011;10873;51.132;16.848;2024-03-29T13:40:36;2.67;;;0.70;;
21424;SDS011;10873;51.132;16.848;2024-03-29T13:43:03;0.88;;;0.70;;
21424;SDS011;10873;51.132;16.848;2024-03-29T13:45:30;0.98;;;0.70;;
21424;SDS011;10873;51.132;16.848;2024-03-29T13:47:56;2.50;;;0.68;;
21424;SDS011;10873;51.132;16.848;2024-03-29T13:50:23;1.75;;;0.82;;
21424;SDS011;10873;51.132;16.848;2024-03-29T13:52:50;0.88;;;0.60;;
21424;SDS011;10873;51.132;16.848;2024-03-29T13:55:16;0.50;;;0.50;;
21424;SDS011;10873;51.132;16.848;2024-03-29T13:57:45;1.55;;;0.70;;
21424;SDS011;10873;51.132;16.848;2024-03-29T14:00:11;2.72;;;0.80;;
21424;SDS011;10873;51.132;16.848;2024-03-29T14:02:40;0.68;;;0.65;;
21424;SDS011;10873;51.132;16.848;2024-03-29T14:05:06;1.67;;;0.47;;
21424;SDS011;10873;51.132;16.848;2024-03-29T14:07:33;1.30;;;0.80;;
21424;SDS011;10873;51.132;16.848;2024-03-29T14:09:59;0.82;;;0.70;;
21424;SDS011;10873;51.132;16.848;2024-03-29T14:31:39;1.17;;;0.70;;
21424;SDS011;10873;51.132;16.848;2024-03-29T14:34:09;1.52;;;0.70;;
21424;SDS011;10873;51.132;16.848;2024-03-29T14:36:36;0.88;;;0.70;;
21424;SDS011;10873;51.132;16.848;2024-03-29T14:39:05;1.35;;;0.60;;
21424;SDS011;10873;51.132;16.848;2024-03-29T14:41:31;1.23;;;0.60;;
21424;SDS011;10873;51.132;16.848;2024-03-29T14:44:02;1.88;;;0.80;;
21424;SDS011;10873;51.132;16.848;2024-03-29T14:46:28;1.00;;;0.80;;
21424;SDS011;10873;51.132;16.848;2024-03-29T14:48:57;1.02;;;0.80;;
21424;SDS011;10873;51.132;16.848;2024-03-29T14:51:23;1.00;;;0.80;;
21424;SDS011;10873;51.132;16.848;2024-03-29T14:53:50;2.10;;;0.98;;
21424;SDS011;10873;51.132;16.848;2024-03-29T14:56:16;1.50;;;0.90;;